Time;durP1;ratioP1;P1;durP2;ratioP2;P2;SDS_P1;SDS_P2;PMS_P1;PMS_P2;Temp;Humidity;BMP_temperature;BMP_pressure;BME280_temperature;BME280_humidity;BME280_pressure;Samples;Min_cycle;Max_cycle;Signal;HPM_P1;HPM_P2
2021/08/24 00:02:16;;;;;;;8.20;7.40;;;;;;;22.02;49.15;97288.39;115685;1182;69234;-55
2021/08/24 00:04:48;;;;;;;9.00;8.00;;;;;;;22.01;49.19;97291.20;115683;1185;59556;-58
2021/08/24 00:07:19;;;;;;;8.50;7.60;;;;;;;21.99;49.24;97287.19;115718;1185;59611;-55
2021/08/24 00:09:50;;;;;;;7.50;6.80;;;;;;;21.97;49.26;97286.48;115708;1185;71443;-56
2021/08/24 00:12:21;;;;;;;7.90;7.20;;;;;;;21.96;49.17;97284.38;115703;1185;69169;-57
2021/08/24 00:14:53;;;;;;;8.40;7.40;;;;;;;21.95;49.28;97283.41;115769;1184;67593;-57
2021/08/24 00:17:24;;;;;;;8.70;7.30;;;;;;;21.94;49.17;97284.23;115838;1182;59592;-57
2021/08/24 00:19:56;;;;;;;7.80;6.90;;;;;;;21.93;49.17;97284.52;115810;1185;59549;-57
2021/08/24 00:22:27;;;;;;;7.40;6.70;;;;;;;21.91;49.29;97277.81;115764;1184;71379;-53
2021/08/24 00:24:58;;;;;;;7.90;7.00;;;;;;;21.91;49.25;97270.46;115776;1182;67944;-57
2021/08/24 00:27:30;;;;;;;7.60;6.90;;;;;;;21.90;49.23;97268.57;115738;1185;69288;-59
2021/08/24 00:30:03;;;;;;;10.00;6.90;;;;;;;21.90;49.31;97266.33;115769;1185;59617;-58
2021/08/24 00:32:35;;;;;;;7.60;6.80;;;;;;;21.89;49.41;97274.42;115735;1184;59517;-58
2021/08/24 00:35:07;;;;;;;8.70;7.80;;;;;;;21.88;49.28;97271.14;115735;1184;71297;-58
2021/08/24 00:37:39;;;;;;;7.70;7.00;;;;;;;21.86;49.38;97268.82;115708;1185;68978;-59
2021/08/24 00:40:11;;;;;;;9.40;7.30;;;;;;;21.85;49.42;97272.65;115728;1185;68041;-59
2021/08/24 00:42:46;;;;;;;7.20;6.50;;;;;;;21.84;49.43;97275.79;115616;1184;59546;-58
2021/08/24 00:45:20;;;;;;;8.20;7.20;;;;;;;21.83;49.57;97274.52;115710;1185;59564;-59
2021/08/24 00:47:52;;;;;;;7.70;6.90;;;;;;;21.81;49.57;97270.35;115781;1185;70774;-58
2021/08/24 00:50:35;;;;;;;8.20;7.40;;;;;;;21.80;49.48;97268.70;115750;1185;68416;-56
2021/08/24 00:53:11;;;;;;;7.40;6.60;;;;;;;21.78;49.53;97264.85;115605;1186;68627;-57
2021/08/24 00:55:46;;;;;;;7.40;6.70;;;;;;;21.77;49.69;97268.11;115733;1182;59639;-58
2021/08/24 00:58:18;;;;;;;7.50;6.80;;;;;;;21.77;49.51;97269.25;115656;1183;59527;-59
2021/08/24 01:00:50;;;;;;;7.80;6.90;;;;;;;21.76;49.55;97275.49;115746;1185;71408;-59
2021/08/24 01:03:31;;;;;;;7.80;6.50;;;;;;;21.76;49.63;97278.52;115707;1185;68993;-57
2021/08/24 01:06:17;;;;;;;7.10;6.40;;;;;;;21.76;49.65;97279.95;115791;1185;69190;-57
2021/08/24 01:09:05;;;;;;;7.60;6.90;;;;;;;21.76;49.63;97281.45;115944;1185;59651;-56
2021/08/24 01:12:01;;;;;;;7.40;6.60;;;;;;;21.75;49.66;97283.87;115811;1185;59606;-53
2021/08/24 01:14:57;;;;;;;7.60;6.80;;;;;;;21.73;49.63;97287.05;115745;1185;70583;-57
2021/08/24 01:17:41;;;;;;;7.80;7.00;;;;;;;21.72;49.69;97283.30;115880;1186;68445;-57
2021/08/24 01:20:29;;;;;;;7.20;6.50;;;;;;;21.72;49.71;97283.20;115745;1185;69030;-57
2021/08/24 01:23:22;;;;;;;7.00;6.30;;;;;;;21.71;49.76;97283.98;115826;1185;59514;-59
2021/08/24 01:26:06;;;;;;;7.50;6.70;;;;;;;21.70;49.70;97285.39;115728;1184;59566;-57
2021/08/24 01:29:11;;;;;;;7.00;6.30;;;;;;;21.69;49.62;97291.52;115727;1185;71169;-58
2021/08/24 01:31:57;;;;;;;7.90;6.90;;;;;;;21.68;49.77;97297.11;115748;1185;69336;-56
2021/08/24 01:34:51;;;;;;;7.20;6.50;;;;;;;21.66;49.81;97292.91;115778;1182;69278;-56
2021/08/24 01:37:25;;;;;;;7.60;6.90;;;;;;;21.65;49.85;97293.98;115831;1181;59560;-57
2021/08/24 01:40:09;;;;;;;7.90;6.70;;;;;;;21.64;49.96;97293.23;115830;1185;59550;-58
2021/08/24 01:42:41;;;;;;;7.90;7.10;;;;;;;21.62;50.07;97293.91;115754;1184;71286;-57
2021/08/24 01:45:23;;;;;;;8.00;7.20;;;;;;;21.61;49.95;97300.80;115803;1185;68291;-56
2021/08/24 01:48:04;;;;;;;7.40;6.70;;;;;;;21.59;49.94;97304.05;115824;1185;69146;-56
2021/08/24 01:50:50;;;;;;;7.20;6.50;;;;;;;21.57;50.13;97303.02;115837;1185;59570;-54
2021/08/24 01:53:33;;;;;;;8.50;6.80;;;;;;;21.56;50.08;97306.45;115864;1185;59530;-57
2021/08/24 01:56:11;;;;;;;7.50;6.80;;;;;;;21.55;50.09;97303.16;115755;1185;71350;-57
2021/08/24 01:58:45;;;;;;;8.10;6.80;;;;;;;21.54;50.20;97297.42;115821;1185;69136;-58
2021/08/24 02:01:20;;;;;;;7.50;6.70;;;;;;;21.53;50.11;97291.88;115734;1181;68621;-55
2021/08/24 02:03:56;;;;;;;7.80;6.70;;;;;;;21.52;50.19;97292.31;115815;1185;59511;-57
2021/08/24 02:06:43;;;;;;;7.50;6.70;;;;;;;21.51;50.20;97290.95;115917;1184;59556;-57
2021/08/24 02:09:27;;;;;;;8.00;6.60;;;;;;;21.51;50.36;97290.10;115794;1186;71197;-57
2021/08/24 02:12:00;;;;;;;7.40;6.70;;;;;;;21.50;50.18;97289.15;115853;1185;69398;-58
2021/08/24 02:14:33;;;;;;;8.20;6.80;;;;;;;21.49;50.33;97286.06;115794;1186;70000;-57
2021/08/24 02:17:07;;;;;;;7.60;6.80;;;;;;;21.48;50.31;97284.08;115876;1185;59506;-55
2021/08/24 02:19:52;;;;;;;7.40;6.70;;;;;;;21.48;50.30;97283.78;115871;1183;59585;-58
2021/08/24 02:22:36;;;;;;;7.90;7.10;;;;;;;21.46;50.30;97281.98;115787;1185;71232;-58
2021/08/24 02:25:23;;;;;;;7.80;6.40;;;;;;;21.46;50.28;97277.92;115752;1185;68423;-57
2021/08/24 02:28:09;;;;;;;6.70;6.00;;;;;;;21.47;50.13;97273.27;115750;1185;69281;-58
2021/08/24 02:30:57;;;;;;;7.30;6.60;;;;;;;21.47;50.33;97273.19;115854;1182;59544;-57
2021/08/24 02:33:38;;;;;;;7.30;6.60;;;;;;;21.49;50.30;97269.81;115822;1184;59554;-57
2021/08/24 02:36:13;;;;;;;7.50;6.80;;;;;;;21.49;50.36;97272.46;115751;1186;71339;-57
2021/08/24 02:38:55;;;;;;;7.80;7.00;;;;;;;21.49;50.41;97275.29;115783;1186;69292;-58
2021/08/24 02:42:11;;;;;;;7.80;7.00;;;;;;;21.47;50.49;97273.71;115799;1186;68663;-57
2021/08/24 02:45:04;;;;;;;7.90;7.10;;;;;;;21.45;50.49;97273.77;115356;1186;59624;-57
2021/08/24 02:47:38;;;;;;;7.90;7.10;;;;;;;21.44;50.52;97280.37;115473;1188;59564;-57
2021/08/24 02:50:11;;;;;;;8.40;7.00;;;;;;;21.41;50.49;97277.84;115468;1185;70584;-56
2021/08/24 02:52:44;;;;;;;7.80;7.00;;;;;;;21.39;50.66;97280.58;115522;1189;68834;-57
2021/08/24 02:55:16;;;;;;;8.00;7.20;;;;;;;21.37;50.77;97280.48;115483;1185;69399;-58
2021/08/24 02:57:47;;;;;;;7.40;6.70;;;;;;;21.34;50.71;97279.05;115425;1187;59615;-57
2021/08/24 03:00:20;;;;;;;7.40;6.70;;;;;;;21.31;50.69;97278.84;115493;1189;59582;-53
2021/08/24 03:02:52;;;;;;;8.10;7.30;;;;;;;21.28;50.75;97279.47;115492;1187;70408;-58
2021/08/24 03:05:25;;;;;;;7.80;6.90;;;;;;;21.25;50.91;97283.06;115426;1190;68436;-58
2021/08/24 03:07:57;;;;;;;7.60;6.80;;;;;;;21.21;50.80;97282.46;115432;1189;69074;-56
2021/08/24 03:10:31;;;;;;;8.30;7.30;;;;;;;21.18;50.92;97285.00;115479;1187;59672;-56
2021/08/24 03:13:14;;;;;;;7.70;6.90;;;;;;;21.15;51.15;97286.42;115438;1187;59657;-57
2021/08/24 03:16:10;;;;;;;7.60;6.90;;;;;;;21.11;51.16;97289.11;115415;1189;70890;-57
2021/08/24 03:18:49;;;;;;;7.60;6.80;;;;;;;21.08;51.36;97286.89;115573;1186;68303;-57
2021/08/24 03:21:27;;;;;;;7.70;6.90;;;;;;;21.06;51.31;97287.67;115841;1186;69047;-57
2021/08/24 03:24:01;;;;;;;8.00;7.10;;;;;;;21.04;51.33;97287.48;115799;1182;59539;-58
2021/08/24 03:26:35;;;;;;;8.20;7.20;;;;;;;21.03;51.27;97287.83;115814;1186;59554;-57
2021/08/24 03:29:12;;;;;;;8.40;7.40;;;;;;;21.01;51.48;97288.00;115805;1186;70729;-54
2021/08/24 03:31:51;;;;;;;8.00;7.20;;;;;;;20.99;51.47;97288.08;115829;1185;69180;-57
2021/08/24 03:34:25;;;;;;;8.00;7.20;;;;;;;20.97;51.57;97293.63;115851;1185;69168;-51
2021/08/24 03:36:56;;;;;;;8.00;7.00;;;;;;;20.95;51.55;97291.58;115791;1185;59546;-57
2021/08/24 03:39:28;;;;;;;7.80;7.00;;;;;;;20.93;51.62;97290.58;115832;1185;59546;-57
2021/08/24 03:42:00;;;;;;;8.90;7.60;;;;;;;20.90;51.58;97289.55;115959;1180;70756;-58
2021/08/24 03:44:31;;;;;;;7.70;6.80;;;;;;;20.89;51.67;97293.36;115843;1185;69186;-58
2021/08/24 03:47:01;;;;;;;8.20;7.20;;;;;;;20.88;51.56;97294.56;115689;1182;68441;-59
2021/08/24 03:49:32;;;;;;;7.30;6.40;;;;;;;20.87;51.70;97291.86;115936;1185;59592;-58
2021/08/24 03:52:04;;;;;;;7.70;6.90;;;;;;;20.85;51.80;97288.27;115937;1181;59513;-56
2021/08/24 03:54:36;;;;;;;8.50;7.70;;;;;;;20.86;51.71;97289.98;115956;1184;70557;-59
2021/08/24 03:57:07;;;;;;;7.80;7.00;;;;;;;20.86;51.70;97288.58;115729;1184;69012;-59
2021/08/24 03:59:39;;;;;;;8.40;7.00;;;;;;;20.85;51.85;97287.59;115750;1185;69382;-58
2021/08/24 04:02:44;;;;;;;7.90;7.00;;;;;;;20.84;51.83;97289.62;115742;1185;59567;-59
2021/08/24 04:05:39;;;;;;;8.60;7.30;;;;;;;20.83;51.99;97291.48;115823;1185;59539;-59
2021/08/24 04:08:11;;;;;;;8.30;7.00;;;;;;;20.82;52.02;97292.19;115866;1185;70649;-58
2021/08/24 04:10:43;;;;;;;8.70;7.40;;;;;;;20.80;52.04;97294.87;115867;1185;68872;-56
2021/08/24 04:13:14;;;;;;;8.80;7.90;;;;;;;20.78;52.03;97293.76;115798;1185;69129;-57
2021/08/24 04:15:45;;;;;;;8.40;7.40;;;;;;;20.76;52.09;97292.15;115785;1185;59560;-57
2021/08/24 04:18:16;;;;;;;7.80;6.90;;;;;;;20.75;52.24;97296.58;115851;1185;59515;-57
2021/08/24 04:20:48;;;;;;;8.00;7.20;;;;;;;20.73;52.16;97291.59;115858;1185;70551;-58
2021/08/24 04:23:23;;;;;;;7.50;6.80;;;;;;;20.72;52.36;97291.66;115879;1185;68247;-55
2021/08/24 04:25:59;;;;;;;8.50;7.40;;;;;;;20.71;52.45;97297.38;115829;1184;68293;-56
2021/08/24 04:28:31;;;;;;;7.90;7.10;;;;;;;20.70;52.53;97296.77;115829;1181;59573;-54
2021/08/24 04:31:09;;;;;;;7.80;7.00;;;;;;;20.69;52.63;97299.48;115740;1185;59570;-56
2021/08/24 04:33:42;;;;;;;7.70;6.90;;;;;;;20.70;52.69;97299.16;115744;1180;71901;-56
2021/08/24 04:36:13;;;;;;;8.50;7.10;;;;;;;20.70;52.68;97301.02;115652;1185;68444;-58
2021/08/24 04:38:53;;;;;;;7.80;6.90;;;;;;;20.73;52.65;97304.05;115745;1185;68544;-58
2021/08/24 04:41:24;;;;;;;8.20;6.90;;;;;;;20.76;52.62;97303.34;115878;1184;59495;-51
2021/08/24 04:43:56;;;;;;;7.70;6.80;;;;;;;20.79;52.61;97301.55;115950;1184;59559;-57
2021/08/24 04:46:27;;;;;;;8.00;7.10;;;;;;;20.83;52.48;97305.46;115821;1186;71338;-57
2021/08/24 04:48:58;;;;;;;8.00;7.10;;;;;;;20.88;52.48;97302.87;115832;1185;69054;-56
2021/08/24 04:51:29;;;;;;;7.80;7.00;;;;;;;20.92;52.34;97309.45;115899;1185;69237;-57
2021/08/24 04:54:00;;;;;;;8.60;6.70;;;;;;;20.98;52.31;97311.45;115920;1185;59558;-56
2021/08/24 04:56:31;;;;;;;8.50;6.70;;;;;;;21.02;52.38;97314.48;115845;1184;59551;-54
2021/08/24 04:59:01;;;;;;;6.70;5.90;;;;;;;21.06;52.32;97315.42;115795;1185;70622;-56
2021/08/24 05:01:32;;;;;;;7.50;6.60;;;;;;;21.11;52.33;97318.61;115824;1185;68532;-55
2021/08/24 05:04:04;;;;;;;7.30;6.50;;;;;;;21.15;52.25;97320.77;115903;1185;68417;-56
2021/08/24 05:06:35;;;;;;;8.50;7.50;;;;;;;21.19;52.19;97323.95;115754;1185;59524;-56
2021/08/24 05:09:06;;;;;;;7.60;5.90;;;;;;;21.23;52.03;97326.14;115916;1180;59552;-55
2021/08/24 05:11:37;;;;;;;7.80;7.00;;;;;;;21.28;52.12;97330.19;115799;1185;69509;-53
2021/08/24 05:14:08;;;;;;;8.30;6.60;;;;;;;21.33;52.12;97329.30;115922;1184;69211;-57
2021/08/24 05:16:38;;;;;;;7.90;7.10;;;;;;;21.37;52.06;97327.90;115782;1185;68489;-57
2021/08/24 05:22:26;;;;;;;8.40;7.30;;;;;;;21.47;51.94;97331.96;115695;1185;59553;-58
2021/08/24 05:24:57;;;;;;;7.10;6.40;;;;;;;21.50;51.76;97331.65;115970;1181;71402;-57
2021/08/24 05:27:27;;;;;;;7.40;6.70;;;;;;;21.55;51.66;97329.11;115738;1185;69221;-57
2021/08/24 05:30:05;;;;;;;7.30;6.60;;;;;;;21.60;51.63;97329.13;115810;1185;68492;-56
2021/08/24 05:32:35;;;;;;;7.90;6.90;;;;;;;21.65;51.60;97328.48;115851;1185;59571;-57
2021/08/24 05:35:08;;;;;;;7.30;6.60;;;;;;;21.70;51.57;97326.45;115825;1185;59492;-57
2021/08/24 05:37:39;;;;;;;9.10;6.80;;;;;;;21.76;51.44;97327.89;115870;1182;71421;-58
2021/08/24 05:40:11;;;;;;;10.10;7.60;;;;;;;21.82;51.55;97333.38;115763;1185;68379;-58
2021/08/24 05:42:42;;;;;;;8.80;7.90;;;;;;;21.87;51.55;97333.67;115780;1185;69018;-56
2021/08/24 05:45:12;;;;;;;10.70;8.70;;;;;;;21.93;51.48;97336.33;115857;1185;59551;-58
2021/08/24 05:47:43;;;;;;;9.30;8.20;;;;;;;21.99;51.44;97335.10;115849;1185;59600;-56
2021/08/24 05:50:14;;;;;;;9.30;8.30;;;;;;;22.04;51.34;97334.48;115750;1181;70639;-58
2021/08/24 05:52:45;;;;;;;10.80;8.30;;;;;;;22.10;51.49;97338.77;115684;1185;68301;-58
2021/08/24 05:55:16;;;;;;;9.70;8.40;;;;;;;22.14;51.41;97339.80;116000;1181;69537;-57
2021/08/24 05:57:46;;;;;;;9.00;8.20;;;;;;;22.20;51.25;97337.48;115723;1185;59530;-56
2021/08/24 06:00:18;;;;;;;8.70;7.80;;;;;;;22.27;51.36;97342.55;115928;1185;59489;-58
2021/08/24 06:02:49;;;;;;;9.10;8.00;;;;;;;22.32;51.30;97342.21;115806;1185;69719;-59
2021/08/24 06:05:20;;;;;;;8.50;7.60;;;;;;;22.38;51.29;97346.86;115816;1185;68413;-58
2021/08/24 06:07:51;;;;;;;8.90;7.90;;;;;;;22.42;51.14;97346.88;115713;1185;69145;-58
2021/08/24 06:10:22;;;;;;;8.70;7.50;;;;;;;22.46;51.06;97352.08;115712;1183;59567;-58
2021/08/24 06:12:53;;;;;;;9.10;7.20;;;;;;;22.49;50.92;97356.01;115779;1185;59529;-58
2021/08/24 06:15:24;;;;;;;8.40;7.50;;;;;;;22.51;50.88;97359.02;115688;1185;71261;-58
2021/08/24 06:17:55;;;;;;;9.40;7.40;;;;;;;22.55;50.93;97360.66;115796;1185;67458;-59
2021/08/24 06:20:27;;;;;;;8.40;7.20;;;;;;;22.60;50.76;97364.73;115800;1185;68445;-57
2021/08/24 06:22:57;;;;;;;8.30;7.10;;;;;;;22.66;50.83;97362.09;115793;1185;59507;-58
2021/08/24 06:25:28;;;;;;;8.50;7.20;;;;;;;22.71;50.73;97360.84;115856;1185;59540;-59
2021/08/24 06:27:59;;;;;;;8.50;7.10;;;;;;;22.77;50.65;97364.22;115897;1185;71428;-59
2021/08/24 06:30:30;;;;;;;8.60;7.30;;;;;;;22.83;50.67;97367.88;115792;1186;68408;-53
2021/08/24 06:33:00;;;;;;;10.20;7.20;;;;;;;22.89;50.66;97365.62;115858;1185;69142;-55
2021/08/24 06:35:31;;;;;;;10.00;9.00;;;;;;;22.95;50.95;97363.61;115870;1185;59527;-54
2021/08/24 06:38:03;;;;;;;9.00;8.00;;;;;;;23.02;50.95;97363.02;115789;1185;59507;-57
2021/08/24 06:40:34;;;;;;;8.30;7.20;;;;;;;23.08;50.81;97362.00;115751;1184;70635;-58
2021/08/24 06:43:04;;;;;;;9.10;7.60;;;;;;;23.14;50.66;97361.92;115919;1185;68551;-58
2021/08/24 06:45:35;;;;;;;9.30;7.80;;;;;;;23.20;50.50;97362.42;115883;1185;68451;-58
2021/08/24 06:48:06;;;;;;;8.20;7.10;;;;;;;23.27;50.48;97366.70;115888;1184;59580;-58
2021/08/24 06:50:37;;;;;;;8.60;7.70;;;;;;;23.33;50.40;97375.70;115852;1182;59536;-59
2021/08/24 06:53:09;;;;;;;8.90;7.60;;;;;;;23.39;50.22;97374.40;115814;1185;71374;-55
2021/08/24 06:55:40;;;;;;;9.70;8.10;;;;;;;23.46;50.30;97368.13;115878;1182;68240;-60
2021/08/24 06:58:12;;;;;;;8.80;7.70;;;;;;;23.51;50.17;97359.22;115860;1185;69254;-65
2021/08/24 07:00:45;;;;;;;9.70;8.70;;;;;;;23.59;49.99;97360.01;115823;1181;59552;-62
2021/08/24 07:03:16;;;;;;;9.40;7.80;;;;;;;23.64;49.89;97354.20;115831;1184;59597;-58
2021/08/24 07:05:51;;;;;;;9.10;8.00;;;;;;;23.70;49.86;97357.82;115816;1185;70550;-60
2021/08/24 07:08:23;;;;;;;7.90;7.10;;;;;;;23.75;49.69;97356.61;115817;1185;68480;-59
2021/08/24 07:10:55;;;;;;;7.70;6.90;;;;;;;23.81;49.60;97366.42;115769;1185;68472;-55
2021/08/24 07:13:27;;;;;;;7.70;6.90;;;;;;;23.86;49.40;97370.28;115844;1185;59565;-60
2021/08/24 07:15:58;;;;;;;7.30;6.50;;;;;;;23.92;49.27;97371.20;115812;1182;59617;-60
2021/08/24 07:18:29;;;;;;;8.40;7.60;;;;;;;23.97;49.03;97370.20;115754;1185;71337;-60
2021/08/24 07:21:01;;;;;;;8.40;7.50;;;;;;;24.01;48.82;97371.45;115805;1185;69194;-60
2021/08/24 07:23:32;;;;;;;8.00;7.20;;;;;;;24.05;48.71;97367.66;115813;1185;68293;-61
2021/08/24 07:26:04;;;;;;;7.80;7.00;;;;;;;24.10;48.63;97366.13;115890;1182;59572;-58
2021/08/24 07:28:34;;;;;;;7.80;7.00;;;;;;;24.14;48.55;97366.81;115828;1184;59517;-62
2021/08/24 07:31:07;;;;;;;7.80;6.80;;;;;;;24.19;48.33;97370.28;115846;1180;72059;-60
2021/08/24 07:33:40;;;;;;;10.20;7.20;;;;;;;24.24;48.33;97373.51;115858;1185;69010;-60
2021/08/24 07:36:13;;;;;;;13.80;7.80;;;;;;;24.30;48.29;97371.36;115859;1185;68715;-63
2021/08/24 07:38:44;;;;;;;8.50;7.60;;;;;;;24.36;48.68;97374.18;115794;1185;59917;-63
2021/08/24 07:41:16;;;;;;;9.10;7.00;;;;;;;24.42;48.41;97371.42;115968;1185;59506;-69
2021/08/24 07:43:48;;;;;;;8.00;6.40;;;;;;;24.49;47.97;97368.99;115905;1185;70572;-64
2021/08/24 07:46:19;;;;;;;6.80;6.20;;;;;;;24.55;47.86;97369.34;115885;1185;69239;-61
2021/08/24 07:48:50;;;;;;;10.60;7.00;;;;;;;24.62;47.62;97368.78;115810;1185;68464;-62
2021/08/24 07:51:22;;;;;;;7.90;7.00;;;;;;;24.69;47.59;97366.38;115881;1185;59558;-62
2021/08/24 07:54:03;;;;;;;7.80;7.00;;;;;;;24.75;47.44;97372.14;115833;1185;59544;-60
2021/08/24 07:56:38;;;;;;;8.70;7.40;;;;;;;24.81;47.20;97368.86;115777;1185;70376;-62
2021/08/24 07:59:10;;;;;;;12.10;8.00;;;;;;;24.87;47.11;97378.09;115808;1185;69162;-62
2021/08/24 08:01:44;;;;;;;7.90;7.10;;;;;;;24.95;47.14;97378.61;115818;1185;69350;-64
2021/08/24 08:04:20;;;;;;;8.60;7.70;;;;;;;25.01;47.13;97383.14;115759;1185;59470;-64
2021/08/24 08:06:52;;;;;;;8.90;8.10;;;;;;;25.07;47.00;97385.70;115814;1185;59570;-64
2021/08/24 08:09:26;;;;;;;7.90;7.10;;;;;;;25.13;46.78;97385.24;115735;1184;71932;-63
2021/08/24 08:11:57;;;;;;;9.60;8.40;;;;;;;25.20;46.64;97383.89;115859;1185;69210;-62
2021/08/24 08:14:30;;;;;;;8.20;7.30;;;;;;;25.25;46.33;97383.43;115779;1185;67556;-60
2021/08/24 08:17:25;;;;;;;9.20;7.70;;;;;;;25.29;46.16;97382.16;115852;1185;59541;-60
2021/08/24 08:19:56;;;;;;;8.20;7.40;;;;;;;25.34;45.87;97380.44;115796;1185;59588;-65
2021/08/24 08:22:26;;;;;;;9.70;8.00;;;;;;;25.37;45.93;97382.48;115862;1184;70391;-58
2021/08/24 08:24:57;;;;;;;9.20;8.20;;;;;;;25.40;46.01;97383.97;115913;1185;69586;-60
2021/08/24 08:27:29;;;;;;;9.40;8.20;;;;;;;25.42;45.89;97384.41;115833;1185;69211;-61
2021/08/24 08:30:00;;;;;;;8.90;7.70;;;;;;;25.43;45.89;97382.34;115806;1185;59551;-60
2021/08/24 08:32:42;;;;;;;8.50;7.60;;;;;;;25.43;45.62;97384.77;115762;1184;59556;-60
2021/08/24 08:35:20;;;;;;;8.50;7.70;;;;;;;25.44;45.68;97384.96;115831;1185;70545;-60
2021/08/24 08:37:55;;;;;;;9.50;7.50;;;;;;;25.43;45.71;97382.84;115863;1185;69114;-60
2021/08/24 08:40:51;;;;;;;8.70;7.90;;;;;;;25.43;45.75;97387.15;115715;1185;68266;-61
2021/08/24 08:43:40;;;;;;;8.30;7.40;;;;;;;25.42;45.81;97389.90;115844;1182;59481;-60
2021/08/24 08:46:32;;;;;;;8.10;7.20;;;;;;;25.42;45.75;97389.80;115819;1181;59504;-60
2021/08/24 08:49:18;;;;;;;8.70;7.90;;;;;;;25.41;45.69;97390.80;115865;1185;70715;-61
2021/08/24 08:52:09;;;;;;;8.10;7.20;;;;;;;25.39;45.61;97390.32;115801;1180;69168;-60
2021/08/24 08:55:06;;;;;;;7.50;6.80;;;;;;;25.38;45.73;97391.75;115782;1185;68407;-59
2021/08/24 08:58:12;;;;;;;8.30;7.30;;;;;;;25.36;45.78;97390.19;115892;1180;59566;-59
2021/08/24 09:00:52;;;;;;;9.40;7.10;;;;;;;25.34;45.84;97391.47;115860;1184;59604;-63
2021/08/24 09:03:46;;;;;;;8.90;7.90;;;;;;;25.33;45.91;97393.65;115872;1185;71423;-60
2021/08/24 09:06:22;;;;;;;9.50;7.60;;;;;;;25.31;45.97;97399.28;115867;1185;68998;-60
2021/08/24 09:09:06;;;;;;;7.70;6.90;;;;;;;25.28;46.03;97400.89;115948;1185;69219;-60
2021/08/24 09:11:46;;;;;;;9.50;7.90;;;;;;;25.25;46.10;97405.21;115865;1184;59534;-58
2021/08/24 09:14:34;;;;;;;10.40;7.70;;;;;;;25.23;46.15;97401.98;115830;1184;60004;-60
2021/08/24 09:17:25;;;;;;;8.10;7.30;;;;;;;25.19;46.11;97403.14;115822;1185;71368;-60
2021/08/24 09:20:25;;;;;;;9.00;7.50;;;;;;;25.16;46.21;97397.71;115841;1185;69357;-62
2021/08/24 09:23:02;;;;;;;8.60;7.70;;;;;;;25.12;46.25;97397.78;115823;1185;69085;-61
2021/08/24 09:26:00;;;;;;;9.30;7.90;;;;;;;25.11;46.29;97402.61;115882;1184;59530;-70
2021/08/24 09:28:34;;;;;;;10.10;8.10;;;;;;;25.10;46.33;97404.55;116079;1185;59583;-62
2021/08/24 09:31:23;;;;;;;9.20;8.30;;;;;;;25.09;46.43;97405.15;116051;1185;70707;-60
2021/08/24 09:33:55;;;;;;;11.30;8.50;;;;;;;25.08;46.43;97400.49;115872;1185;68682;-61
2021/08/24 09:36:26;;;;;;;10.30;8.00;;;;;;;25.08;46.48;97399.59;116051;1185;69253;-69
2021/08/24 09:39:00;;;;;;;9.60;7.70;;;;;;;25.08;46.43;97399.09;116019;1185;59566;-68
2021/08/24 09:41:39;;;;;;;9.40;8.50;;;;;;;25.08;46.52;97398.40;116049;1185;59559;-60
2021/08/24 09:44:28;;;;;;;10.20;8.30;;;;;;;25.08;46.52;97398.06;115891;1185;70546;-65
2021/08/24 09:47:15;;;;;;;10.30;8.00;;;;;;;25.08;46.68;97397.70;115982;1184;69336;-67
2021/08/24 09:50:14;;;;;;;11.00;7.90;;;;;;;25.09;46.64;97394.73;115896;1185;68376;-70
2021/08/24 09:52:52;;;;;;;9.90;8.30;;;;;;;25.09;46.78;97391.15;115864;1185;59489;-62
2021/08/24 09:55:29;;;;;;;;;;;;;;;25.10;46.78;97394.23;115819;1181;59500;-63
2021/08/24 09:58:03;;;;;;;9.70;8.70;;;;;;;25.12;46.91;97396.64;115929;1185;71266;-61
2021/08/24 10:01:02;;;;;;;9.30;7.90;;;;;;;25.14;46.62;97397.29;115842;1185;68658;-56
2021/08/24 10:03:44;;;;;;;10.70;9.20;;;;;;;25.16;46.68;97399.90;115849;1185;69221;-56
2021/08/24 10:06:38;;;;;;;10.50;9.40;;;;;;;25.16;46.88;97395.58;115836;1185;59520;-56
2021/08/24 10:09:22;;;;;;;10.50;9.20;;;;;;;25.17;46.91;97393.42;115830;1185;59555;-61
2021/08/24 10:12:18;;;;;;;10.40;8.90;;;;;;;25.19;46.83;97394.88;115844;1185;70584;-63
2021/08/24 10:14:51;;;;;;;10.90;9.20;;;;;;;25.19;46.69;97392.66;115790;1185;68561;-57
2021/08/24 10:17:36;;;;;;;12.10;9.10;;;;;;;25.20;46.63;97395.95;115860;1185;69255;-60
2021/08/24 10:20:30;;;;;;;9.90;8.90;;;;;;;25.20;46.51;97396.61;115877;1185;59547;-57
2021/08/24 10:23:10;;;;;;;10.10;9.10;;;;;;;25.21;46.52;97400.71;115894;1185;59538;-59
2021/08/24 10:25:51;;;;;;;10.50;9.40;;;;;;;25.22;46.59;97400.79;115806;1185;71341;-58
2021/08/24 10:28:40;;;;;;;10.60;9.20;;;;;;;25.23;46.66;97396.92;115925;1185;68142;-61
2021/08/24 10:31:21;;;;;;;10.10;9.00;;;;;;;25.26;46.62;97400.80;115841;1181;68453;-60
2021/08/24 10:33:59;;;;;;;9.60;8.50;;;;;;;25.27;46.70;97397.23;115915;1185;59558;-61
2021/08/24 10:36:37;;;;;;;9.40;8.30;;;;;;;25.29;46.62;97397.69;115884;1185;59642;-64
2021/08/24 10:39:24;;;;;;;10.30;9.30;;;;;;;25.32;46.73;97396.80;115855;1185;71345;-61
2021/08/24 10:42:15;;;;;;;10.90;9.80;;;;;;;25.33;46.66;97398.19;115743;1185;68696;-58
2021/08/24 10:44:53;;;;;;;11.80;10.40;;;;;;;25.34;46.61;97394.89;115756;1185;68369;-58
2021/08/24 10:47:44;;;;;;;11.30;10.10;;;;;;;25.34;46.61;97392.25;115663;1185;59642;-60
2021/08/24 10:50:24;;;;;;;11.80;10.60;;;;;;;25.34;46.68;97392.58;115864;1181;59558;-66
2021/08/24 10:53:21;;;;;;;12.20;10.70;;;;;;;25.34;46.60;97392.95;115800;1185;71379;-63
2021/08/24 10:56:07;;;;;;;12.30;10.70;;;;;;;25.34;46.57;97394.14;115878;1185;69143;-62
2021/08/24 10:58:48;;;;;;;12.50;11.10;;;;;;;25.34;46.63;97390.94;115853;1185;70490;-63
2021/08/24 11:01:52;;;;;;;11.80;10.50;;;;;;;25.35;46.60;97387.80;115806;1185;59784;-61
2021/08/24 11:04:56;;;;;;;11.70;10.50;;;;;;;25.35;46.57;97387.27;115784;1185;59549;-62
2021/08/24 11:07:53;;;;;;;11.60;10.40;;;;;;;25.35;46.70;97388.63;115756;1185;70559;-62
2021/08/24 11:10:47;;;;;;;12.00;10.60;;;;;;;25.36;46.71;97387.10;115854;1185;69313;-61
2021/08/24 11:13:30;;;;;;;11.00;9.90;;;;;;;25.36;46.65;97389.95;115844;1182;69431;-63
2021/08/24 11:16:21;;;;;;;11.10;10.00;;;;;;;25.37;46.51;97389.94;115808;1182;59660;-60
2021/08/24 11:19:04;;;;;;;10.50;9.40;;;;;;;25.37;46.55;97390.43;115848;1185;59620;-60
2021/08/24 11:21:46;;;;;;;11.10;10.00;;;;;;;25.37;46.59;97392.56;115891;1185;70356;-62
2021/08/24 11:24:57;;;;;;;10.30;9.20;;;;;;;25.36;46.62;97386.56;115816;1185;69233;-62
2021/08/24 11:28:05;;;;;;;10.50;9.00;;;;;;;25.36;46.64;97390.84;115723;1185;68256;-63
2021/08/24 11:30:57;;;;;;;10.10;8.70;;;;;;;25.35;46.58;97387.55;115817;1185;59549;-57
2021/08/24 11:33:48;;;;;;;9.70;8.60;;;;;;;25.36;46.58;97383.86;115778;1184;59574;-60
2021/08/24 11:36:35;;;;;;;10.30;8.80;;;;;;;25.35;46.69;97385.63;115811;1186;72572;-62
2021/08/24 11:39:14;;;;;;;10.30;8.50;;;;;;;25.35;46.71;97385.08;115845;1185;68496;-59
2021/08/24 11:41:50;;;;;;;8.90;8.00;;;;;;;25.36;46.64;97381.26;115712;1184;69125;-66
2021/08/24 11:44:29;;;;;;;9.40;8.40;;;;;;;25.37;46.72;97380.22;115785;1185;59554;-63
2021/08/24 11:47:15;;;;;;;10.10;9.10;;;;;;;25.37;46.76;97376.42;115848;1181;59549;-65
2021/08/24 11:50:00;;;;;;;9.70;8.80;;;;;;;25.38;46.79;97372.08;115812;1184;70408;-61
2021/08/24 11:52:46;;;;;;;10.00;8.70;;;;;;;25.39;46.78;97373.52;115732;1185;68411;-64
2021/08/24 11:55:33;;;;;;;9.70;8.70;;;;;;;25.40;46.83;97378.58;115799;1185;68266;-65
2021/08/24 11:58:14;;;;;;;9.70;8.70;;;;;;;25.41;46.82;97383.60;115910;1185;59573;-63
2021/08/24 12:01:01;;;;;;;10.30;9.10;;;;;;;25.42;46.89;97378.71;115796;1181;59667;-58
2021/08/24 12:03:47;;;;;;;10.10;8.30;;;;;;;25.43;46.92;97380.89;115815;1180;71348;-65
2021/08/24 12:06:48;;;;;;;9.70;8.80;;;;;;;25.43;46.89;97376.48;115844;1185;69098;-69
2021/08/24 12:09:44;;;;;;;9.40;8.50;;;;;;;25.43;46.95;97375.55;115837;1185;69218;-61
2021/08/24 12:12:37;;;;;;;9.50;8.60;;;;;;;25.44;46.99;97374.39;115931;1185;59562;-67
2021/08/24 12:15:26;;;;;;;10.00;9.00;;;;;;;25.44;47.03;97373.81;115807;1185;59565;-59
2021/08/24 12:18:26;;;;;;;10.40;9.30;;;;;;;25.45;47.08;97376.89;115842;1185;71356;-62
2021/08/24 12:21:32;;;;;;;10.20;9.10;;;;;;;25.45;47.05;97377.17;115848;1185;68505;-62